sensor_id;sensor_type;location;lat;lon;timestamp;temperature;humidity
18091;DHT22;9172;49.948;9.208;2024-01-30T00:00:00;5.10;99.90
18091;DHT22;9172;49.948;9.208;2024-01-30T00:02:29;5.10;99.90
18091;DHT22;9172;49.948;9.208;2024-01-30T00:04:57;5.00;99.90
18091;DHT22;9172;49.948;9.208;2024-01-30T00:07:26;5.00;99.90
18091;DHT22;9172;49.948;9.208;2024-01-30T00:09:54;5.00;99.90
18091;DHT22;9172;49.948;9.208;2024-01-30T00:12:23;4.90;99.90
18091;DHT22;9172;49.948;9.208;2024-01-30T00:14:51;4.90;99.90
18091;DHT22;9172;49.948;9.208;2024-01-30T00:17:20;4.90;99.90
18091;DHT22;9172;49.948;9.208;2024-01-30T00:19:48;4.90;99.90
18091;DHT22;9172;49.948;9.208;2024-01-30T00:22:17;4.90;99.90
18091;DHT22;9172;49.948;9.208;2024-01-30T00:24:46;4.80;99.90
18091;DHT22;9172;49.948;9.208;2024-01-30T00:27:14;4.80;99.90
18091;DHT22;9172;49.948;9.208;2024-01-30T00:29:43;4.80;99.90
18091;DHT22;9172;49.948;9.208;2024-01-30T00:32:12;4.80;99.90
18091;DHT22;9172;49.948;9.208;2024-01-30T00:34:41;4.80;99.90
18091;DHT22;9172;49.948;9.208;2024-01-30T00:37:09;4.80;99.90
18091;DHT22;9172;49.948;9.208;2024-01-30T00:39:38;4.80;99.90
18091;DHT22;9172;49.948;9.208;2024-01-30T00:42:07;4.80;99.90
18091;DHT22;9172;49.948;9.208;2024-01-30T00:44:36;4.80;99.90
18091;DHT22;9172;49.948;9.208;2024-01-30T00:47:06;4.80;99.90
18091;DHT22;9172;49.948;9.208;2024-01-30T00:49:35;4.80;99.90
18091;DHT22;9172;49.948;9.208;2024-01-30T00:52:05;4.70;99.90
18091;DHT22;9172;49.948;9.208;2024-01-30T00:54:33;4.70;99.90
18091;DHT22;9172;49.948;9.208;2024-01-30T00:57:02;4.70;99.90
18091;DHT22;9172;49.948;9.208;2024-01-30T00:59:31;4.70;99.90
18091;DHT22;9172;49.948;9.208;2024-01-30T01:01:59;4.70;99.90
18091;DHT22;9172;49.948;9.208;2024-01-30T01:04:28;4.70;99.90
18091;DHT22;9172;49.948;9.208;2024-01-30T01:06:56;4.70;99.90
18091;DHT22;9172;49.948;9.208;2024-01-30T01:09:25;4.70;99.90
18091;DHT22;9172;49.948;9.208;2024-01-30T01:11:54;4.70;99.90
18091;DHT22;9172;49.948;9.208;2024-01-30T01:14:22;4.60;99.90
18091;DHT22;9172;49.948;9.208;2024-01-30T01:16:51;4.70;99.90
18091;DHT22;9172;49.948;9.208;2024-01-30T01:19:19;4.60;99.90
18091;DHT22;9172;49.948;9.208;2024-01-30T01:21:48;4.60;99.90
18091;DHT22;9172;49.948;9.208;2024-01-30T01:24:16;4.60;99.90
18091;DHT22;9172;49.948;9.208;2024-01-30T01:26:45;4.60;99.90
18091;DHT22;9172;49.948;9.208;2024-01-30T01:29:14;4.60;99.90
18091;DHT22;9172;49.948;9.208;2024-01-30T01:31:43;4.50;99.90
18091;DHT22;9172;49.948;9.208;2024-01-30T01:34:12;4.50;99.90
18091;DHT22;9172;49.948;9.208;2024-01-30T01:36:41;4.50;99.90
18091;DHT22;9172;49.948;9.208;2024-01-30T01:39:09;4.50;99.90
18091;DHT22;9172;49.948;9.208;2024-01-30T01:41:38;4.50;99.90
18091;DHT22;9172;49.948;9.208;2024-01-30T01:44:06;4.50;99.90
18091;DHT22;9172;49.948;9.208;2024-01-30T01:46:35;4.40;99.90
18091;DHT22;9172;49.948;9.208;2024-01-30T01:49:05;4.40;99.90
18091;DHT22;9172;49.948;9.208;2024-01-30T01:51:36;4.50;99.90
18091;DHT22;9172;49.948;9.208;2024-01-30T01:54:06;4.50;99.90
18091;DHT22;9172;49.948;9.208;2024-01-30T01:56:35;4.50;99.90
18091;DHT22;9172;49.948;9.208;2024-01-30T01:59:07;4.50;99.90
18091;DHT22;9172;49.948;9.208;2024-01-30T02:01:36;4.40;99.90
18091;DHT22;9172;49.948;9.208;2024-01-30T02:04:05;4.40;99.90
18091;DHT22;9172;49.948;9.208;2024-01-30T02:06:34;4.40;99.90
18091;DHT22;9172;49.948;9.208;2024-01-30T02:09:03;4.40;99.90
18091;DHT22;9172;49.948;9.208;2024-01-30T02:11:32;4.40;99.90
18091;DHT22;9172;49.948;9.208;2024-01-30T02:14:04;4.40;99.90
18091;DHT22;9172;49.948;9.208;2024-01-30T02:16:32;4.30;99.90
18091;DHT22;9172;49.948;9.208;2024-01-30T02:19:01;4.30;99.90
18091;DHT22;9172;49.948;9.208;2024-01-30T02:21:29;4.30;99.90
18091;DHT22;9172;49.948;9.208;2024-01-30T02:23:59;4.30;99.90
18091;DHT22;9172;49.948;9.208;2024-01-30T02:26:28;4.30;99.90
18091;DHT22;9172;49.948;9.208;2024-01-30T02:28:56;4.20;99.90
18091;DHT22;9172;49.948;9.208;2024-01-30T02:31:26;4.10;99.90
18091;DHT22;9172;49.948;9.208;2024-01-30T02:33:55;4.10;99.90
18091;DHT22;9172;49.948;9.208;2024-01-30T02:36:23;4.10;99.90
18091;DHT22;9172;49.948;9.208;2024-01-30T02:38:52;4.10;99.90
18091;DHT22;9172;49.948;9.208;2024-01-30T02:41:20;4.10;99.90
18091;DHT22;9172;49.948;9.208;2024-01-30T02:43:49;4.20;99.90
18091;DHT22;9172;49.948;9.208;2024-01-30T02:46:17;4.20;99.90
18091;DHT22;9172;49.948;9.208;2024-01-30T02:48:46;4.20;99.90
18091;DHT22;9172;49.948;9.208;2024-01-30T02:51:14;4.20;99.90
18091;DHT22;9172;49.948;9.208;2024-01-30T02:53:43;4.20;99.90
18091;DHT22;9172;49.948;9.208;2024-01-30T02:56:12;4.10;99.90
18091;DHT22;9172;49.948;9.208;2024-01-30T02:58:41;4.10;99.90
18091;DHT22;9172;49.948;9.208;2024-01-30T03:01:10;4.10;99.90
18091;DHT22;9172;49.948;9.208;2024-01-30T03:03:38;4.10;99.90
18091;DHT22;9172;49.948;9.208;2024-01-30T03:06:08;4.10;99.90
18091;DHT22;9172;49.948;9.208;2024-01-30T03:08:36;4.10;99.90
18091;DHT22;9172;49.948;9.208;2024-01-30T03:11:05;4.10;99.90
18091;DHT22;9172;49.948;9.208;2024-01-30T03:13:34;4.10;99.90
18091;DHT22;9172;49.948;9.208;2024-01-30T03:16:02;4.10;99.90
18091;DHT22;9172;49.948;9.208;2024-01-30T03:18:31;4.10;99.90
18091;DHT22;9172;49.948;9.208;2024-01-30T03:21:01;4.10;99.90
18091;DHT22;9172;49.948;9.208;2024-01-30T03:23:32;4.10;99.90
18091;DHT22;9172;49.948;9.208;2024-01-30T03:26:03;4.10;99.90
18091;DHT22;9172;49.948;9.208;2024-01-30T03:28:34;4.10;99.90
18091;DHT22;9172;49.948;9.208;2024-01-30T03:31:02;4.10;99.90
18091;DHT22;9172;49.948;9.208;2024-01-30T03:33:34;4.10;99.90
18091;DHT22;9172;49.948;9.208;2024-01-30T03:36:06;4.10;99.90
18091;DHT22;9172;49.948;9.208;2024-01-30T03:38:35;4.10;99.90
18091;DHT22;9172;49.948;9.208;2024-01-30T03:41:07;4.00;99.90
18091;DHT22;9172;49.948;9.208;2024-01-30T03:43:34;4.00;99.90
18091;DHT22;9172;49.948;9.208;2024-01-30T03:46:04;4.00;99.90
18091;DHT22;9172;49.948;9.208;2024-01-30T03:48:32;4.00;99.90
18091;DHT22;9172;49.948;9.208;2024-01-30T03:51:04;4.00;99.90
18091;DHT22;9172;49.948;9.208;2024-01-30T03:53:33;4.00;99.90
18091;DHT22;9172;49.948;9.208;2024-01-30T03:56:02;4.00;99.90
18091;DHT22;9172;49.948;9.208;2024-01-30T03:58:31;4.00;99.90
18091;DHT22;9172;49.948;9.208;2024-01-30T04:00:59;3.90;99.90
18091;DHT22;9172;49.948;9.208;2024-01-30T04:03:28;3.90;99.90
18091;DHT22;9172;49.948;9.208;2024-01-30T04:05:56;3.90;99.90
18091;DHT22;9172;49.948;9.208;2024-01-30T04:08:25;3.90;99.90
18091;DHT22;9172;49.948;9.208;2024-01-30T04:10:53;3.80;99.90
18091;DHT22;9172;49.948;9.208;2024-01-30T04:13:22;3.80;99.90
18091;DHT22;9172;49.948;9.208;2024-01-30T04:15:51;3.70;99.90
18091;DHT22;9172;49.948;9.208;2024-01-30T04:18:21;3.70;99.90
18091;DHT22;9172;49.948;9.208;2024-01-30T04:20:50;3.80;99.90
18091;DHT22;9172;49.948;9.208;2024-01-30T04:23:18;3.70;99.90
18091;DHT22;9172;49.948;9.208;2024-01-30T04:25:47;3.70;99.90
18091;DHT22;9172;49.948;9.208;2024-01-30T04:28:15;3.70;99.90
18091;DHT22;9172;49.948;9.208;2024-01-30T04:30:44;3.70;99.90
18091;DHT22;9172;49.948;9.208;2024-01-30T04:33:12;3.70;99.90
18091;DHT22;9172;49.948;9.208;2024-01-30T04:35:41;3.70;99.90
18091;DHT22;9172;49.948;9.208;2024-01-30T04:38:09;3.70;99.90
18091;DHT22;9172;49.948;9.208;2024-01-30T04:40:38;3.70;99.90
18091;DHT22;9172;49.948;9.208;2024-01-30T04:43:07;3.70;99.90
18091;DHT22;9172;49.948;9.208;2024-01-30T04:45:36;3.70;99.90
18091;DHT22;9172;49.948;9.208;2024-01-30T04:48:05;3.70;99.90
18091;DHT22;9172;49.948;9.208;2024-01-30T04:50:34;3.70;99.90
18091;DHT22;9172;49.948;9.208;2024-01-30T04:53:03;3.70;99.90
18091;DHT22;9172;49.948;9.208;2024-01-30T04:55:32;3.70;99.90
18091;DHT22;9172;49.948;9.208;2024-01-30T04:58:00;3.70;99.90
18091;DHT22;9172;49.948;9.208;2024-01-30T05:00:29;3.70;99.90
18091;DHT22;9172;49.948;9.208;2024-01-30T05:02:58;3.70;99.90
18091;DHT22;9172;49.948;9.208;2024-01-30T05:05:26;3.70;99.90
18091;DHT22;9172;49.948;9.208;2024-01-30T05:07:55;3.70;99.90
18091;DHT22;9172;49.948;9.208;2024-01-30T05:10:23;3.60;99.90
18091;DHT22;9172;49.948;9.208;2024-01-30T05:12:52;3.60;99.90
18091;DHT22;9172;49.948;9.208;2024-01-30T05:15:20;3.60;99.90
18091;DHT22;9172;49.948;9.208;2024-01-30T05:17:49;3.50;99.90
18091;DHT22;9172;49.948;9.208;2024-01-30T05:20:19;3.50;99.90
18091;DHT22;9172;49.948;9.208;2024-01-30T05:22:48;3.50;99.90
18091;DHT22;9172;49.948;9.208;2024-01-30T05:25:16;3.50;99.90
18091;DHT22;9172;49.948;9.208;2024-01-30T05:27:45;3.60;99.90
18091;DHT22;9172;49.948;9.208;2024-01-30T05:30:14;3.60;99.90
18091;DHT22;9172;49.948;9.208;2024-01-30T05:32:43;3.60;99.90
18091;DHT22;9172;49.948;9.208;2024-01-30T05:35:11;3.60;99.90
18091;DHT22;9172;49.948;9.208;2024-01-30T05:37:40;3.70;99.90
18091;DHT22;9172;49.948;9.208;2024-01-30T05:40:11;3.70;99.90
18091;DHT22;9172;49.948;9.208;2024-01-30T05:42:39;3.70;99.90
18091;DHT22;9172;49.948;9.208;2024-01-30T05:45:09;3.70;99.90
18091;DHT22;9172;49.948;9.208;2024-01-30T05:47:37;3.60;99.90
18091;DHT22;9172;49.948;9.208;2024-01-30T05:50:08;3.60;99.90
18091;DHT22;9172;49.948;9.208;2024-01-30T05:52:37;3.50;99.90
18091;DHT22;9172;49.948;9.208;2024-01-30T05:55:06;3.50;99.90
18091;DHT22;9172;49.948;9.208;2024-01-30T05:57:34;3.50;99.90
18091;DHT22;9172;49.948;9.208;2024-01-30T06:00:06;3.50;99.90
18091;DHT22;9172;49.948;9.208;2024-01-30T06:02:36;3.50;99.90
18091;DHT22;9172;49.948;9.208;2024-01-30T06:05:05;3.50;99.90
18091;DHT22;9172;49.948;9.208;2024-01-30T06:07:34;3.50;99.90
18091;DHT22;9172;49.948;9.208;2024-01-30T06:10:03;3.60;99.90
18091;DHT22;9172;49.948;9.208;2024-01-30T06:12:32;3.60;99.90
18091;DHT22;9172;49.948;9.208;2024-01-30T06:15:01;3.50;99.90
18091;DHT22;9172;49.948;9.208;2024-01-30T06:17:29;3.50;99.90
18091;DHT22;9172;49.948;9.208;2024-01-30T06:19:58;3.50;99.90
18091;DHT22;9172;49.948;9.208;2024-01-30T06:22:27;3.50;99.90
18091;DHT22;9172;49.948;9.208;2024-01-30T06:24:55;3.50;99.90
18091;DHT22;9172;49.948;9.208;2024-01-30T06:27:24;3.50;99.90
18091;DHT22;9172;49.948;9.208;2024-01-30T06:29:52;3.60;99.90
18091;DHT22;9172;49.948;9.208;2024-01-30T06:32:21;3.60;99.90
18091;DHT22;9172;49.948;9.208;2024-01-30T06:34:50;3.50;99.90
18091;DHT22;9172;49.948;9.208;2024-01-30T06:37:18;3.60;99.90
18091;DHT22;9172;49.948;9.208;2024-01-30T06:39:47;3.60;99.90
18091;DHT22;9172;49.948;9.208;2024-01-30T06:42:15;3.60;99.90
18091;DHT22;9172;49.948;9.208;2024-01-30T06:44:44;3.70;99.90
18091;DHT22;9172;49.948;9.208;2024-01-30T06:47:12;3.70;99.90
18091;DHT22;9172;49.948;9.208;2024-01-30T06:49:41;3.80;99.90
18091;DHT22;9172;49.948;9.208;2024-01-30T06:52:11;3.80;99.90
18091;DHT22;9172;49.948;9.208;2024-01-30T06:54:39;3.90;99.90
18091;DHT22;9172;49.948;9.208;2024-01-30T06:57:08;3.90;99.90
18091;DHT22;9172;49.948;9.208;2024-01-30T06:59:38;3.90;99.90
18091;DHT22;9172;49.948;9.208;2024-01-30T07:02:09;3.90;99.90
18091;DHT22;9172;49.948;9.208;2024-01-30T07:04:37;3.90;99.90
18091;DHT22;9172;49.948;9.208;2024-01-30T07:07:06;3.90;99.90
18091;DHT22;9172;49.948;9.208;2024-01-30T07:09:37;3.80;99.90
18091;DHT22;9172;49.948;9.208;2024-01-30T07:12:07;3.80;99.90
18091;DHT22;9172;49.948;9.208;2024-01-30T07:14:36;3.80;99.90
18091;DHT22;9172;49.948;9.208;2024-01-30T07:17:05;3.80;99.90
18091;DHT22;9172;49.948;9.208;2024-01-30T07:19:34;3.80;99.90
18091;DHT22;9172;49.948;9.208;2024-01-30T07:22:03;3.80;99.90
18091;DHT22;9172;49.948;9.208;2024-01-30T07:24:32;3.80;99.90
18091;DHT22;9172;49.948;9.208;2024-01-30T07:27:01;3.90;99.90
18091;DHT22;9172;49.948;9.208;2024-01-30T07:29:30;3.90;99.90
18091;DHT22;9172;49.948;9.208;2024-01-30T07:31:58;3.90;99.90
18091;DHT22;9172;49.948;9.208;2024-01-30T07:34:27;4.00;99.90
18091;DHT22;9172;49.948;9.208;2024-01-30T07:36:55;4.00;99.90
18091;DHT22;9172;49.948;9.208;2024-01-30T07:39:24;4.00;99.90
18091;DHT22;9172;49.948;9.208;2024-01-30T07:41:52;4.10;99.90
18091;DHT22;9172;49.948;9.208;2024-01-30T07:44:21;4.30;99.90
18091;DHT22;9172;49.948;9.208;2024-01-30T07:46:51;4.30;99.90
18091;DHT22;9172;49.948;9.208;2024-01-30T07:49:19;4.40;99.90
18091;DHT22;9172;49.948;9.208;2024-01-30T07:51:48;4.50;99.90
18091;DHT22;9172;49.948;9.208;2024-01-30T07:54:17;4.60;99.90
18091;DHT22;9172;49.948;9.208;2024-01-30T08:03:32;5.00;99.90
18091;DHT22;9172;49.948;9.208;2024-01-30T08:06:01;5.10;99.90
18091;DHT22;9172;49.948;9.208;2024-01-30T08:08:30;5.20;99.90
18091;DHT22;9172;49.948;9.208;2024-01-30T08:11:02;5.30;99.90
18091;DHT22;9172;49.948;9.208;2024-01-30T08:13:31;5.40;99.90
18091;DHT22;9172;49.948;9.208;2024-01-30T08:15:59;5.40;99.90
18091;DHT22;9172;49.948;9.208;2024-01-30T08:18:28;5.50;99.90
18091;DHT22;9172;49.948;9.208;2024-01-30T08:20:59;5.50;99.90
18091;DHT22;9172;49.948;9.208;2024-01-30T08:23:28;5.50;99.90
18091;DHT22;9172;49.948;9.208;2024-01-30T08:25:57;5.60;99.90
18091;DHT22;9172;49.948;9.208;2024-01-30T08:28:26;5.60;99.90
18091;DHT22;9172;49.948;9.208;2024-01-30T08:30:54;5.60;99.90
18091;DHT22;9172;49.948;9.208;2024-01-30T08:33:25;5.70;99.90
18091;DHT22;9172;49.948;9.208;2024-01-30T08:35:53;5.80;99.90
18091;DHT22;9172;49.948;9.208;2024-01-30T08:38:22;5.90;99.90
18091;DHT22;9172;49.948;9.208;2024-01-30T08:43:37;6.10;99.90
18091;DHT22;9172;49.948;9.208;2024-01-30T08:46:09;6.20;99.90
18091;DHT22;9172;49.948;9.208;2024-01-30T08:48:37;6.30;99.90
18091;DHT22;9172;49.948;9.208;2024-01-30T08:51:09;6.30;99.90
18091;DHT22;9172;49.948;9.208;2024-01-30T08:53:38;6.40;99.90
18091;DHT22;9172;49.948;9.208;2024-01-30T08:56:08;6.50;99.90
18091;DHT22;9172;49.948;9.208;2024-01-30T08:58:39;6.60;99.90
18091;DHT22;9172;49.948;9.208;2024-01-30T09:01:08;6.60;99.90
18091;DHT22;9172;49.948;9.208;2024-01-30T09:03:39;6.60;99.90
18091;DHT22;9172;49.948;9.208;2024-01-30T09:06:10;6.50;99.90
18091;DHT22;9172;49.948;9.208;2024-01-30T09:08:39;6.30;99.90
18091;DHT22;9172;49.948;9.208;2024-01-30T09:11:09;6.20;99.90
18091;DHT22;9172;49.948;9.208;2024-01-30T09:13:38;6.10;99.90
18091;DHT22;9172;49.948;9.208;2024-01-30T09:16:10;5.90;99.90
18091;DHT22;9172;49.948;9.208;2024-01-30T09:18:38;5.90;99.90
18091;DHT22;9172;49.948;9.208;2024-01-30T09:21:07;5.90;99.90
18091;DHT22;9172;49.948;9.208;2024-01-30T09:23:35;5.90;99.90
18091;DHT22;9172;49.948;9.208;2024-01-30T09:26:06;5.90;99.90
18091;DHT22;9172;49.948;9.208;2024-01-30T09:28:38;5.90;99.90
18091;DHT22;9172;49.948;9.208;2024-01-30T09:31:10;5.90;99.90
18091;DHT22;9172;49.948;9.208;2024-01-30T09:33:39;6.00;99.90
18091;DHT22;9172;49.948;9.208;2024-01-30T09:36:09;6.10;99.90
18091;DHT22;9172;49.948;9.208;2024-01-30T09:38:38;6.20;99.90
18091;DHT22;9172;49.948;9.208;2024-01-30T09:41:10;6.20;99.90
18091;DHT22;9172;49.948;9.208;2024-01-30T09:43:48;6.30;99.90
18091;DHT22;9172;49.948;9.208;2024-01-30T09:46:18;6.40;99.90
18091;DHT22;9172;49.948;9.208;2024-01-30T09:48:49;6.60;99.90
18091;DHT22;9172;49.948;9.208;2024-01-30T09:51:18;6.80;99.90
18091;DHT22;9172;49.948;9.208;2024-01-30T09:53:47;6.90;99.90
18091;DHT22;9172;49.948;9.208;2024-01-30T09:56:18;7.00;99.90
18091;DHT22;9172;49.948;9.208;2024-01-30T10:01:32;7.20;99.90
18091;DHT22;9172;49.948;9.208;2024-01-30T10:04:02;7.30;99.90
18091;DHT22;9172;49.948;9.208;2024-01-30T10:06:31;7.40;99.90
18091;DHT22;9172;49.948;9.208;2024-01-30T10:09:00;7.50;99.90
18091;DHT22;9172;49.948;9.208;2024-01-30T10:11:28;7.60;99.90
18091;DHT22;9172;49.948;9.208;2024-01-30T10:13:57;9.70;99.90
18091;DHT22;9172;49.948;9.208;2024-01-30T10:16:26;7.80;99.90
18091;DHT22;9172;49.948;9.208;2024-01-30T10:18:54;7.90;99.90
18091;DHT22;9172;49.948;9.208;2024-01-30T10:21:23;8.00;99.90
18091;DHT22;9172;49.948;9.208;2024-01-30T10:23:52;8.00;99.90
18091;DHT22;9172;49.948;9.208;2024-01-30T10:26:21;8.10;99.90
18091;DHT22;9172;49.948;9.208;2024-01-30T10:28:50;8.20;99.90
18091;DHT22;9172;49.948;9.208;2024-01-30T10:31:19;8.30;99.90
18091;DHT22;9172;49.948;9.208;2024-01-30T10:33:47;8.30;99.90
18091;DHT22;9172;49.948;9.208;2024-01-30T10:36:16;8.40;99.90
18091;DHT22;9172;49.948;9.208;2024-01-30T10:38:46;8.40;99.90
18091;DHT22;9172;49.948;9.208;2024-01-30T10:41:18;8.50;99.90
18091;DHT22;9172;49.948;9.208;2024-01-30T10:46:31;8.60;99.90
18091;DHT22;9172;49.948;9.208;2024-01-30T10:49:01;8.70;99.90
18091;DHT22;9172;49.948;9.208;2024-01-30T10:51:32;8.70;99.90
18091;DHT22;9172;49.948;9.208;2024-01-30T10:54:01;8.80;99.90
18091;DHT22;9172;49.948;9.208;2024-01-30T10:56:30;8.80;99.90
18091;DHT22;9172;49.948;9.208;2024-01-30T10:59:00;8.90;99.90
18091;DHT22;9172;49.948;9.208;2024-01-30T11:01:30;8.90;99.90
18091;DHT22;9172;49.948;9.208;2024-01-30T11:03:58;8.90;99.90
18091;DHT22;9172;49.948;9.208;2024-01-30T11:06:27;8.90;99.90
18091;DHT22;9172;49.948;9.208;2024-01-30T11:09:03;9.00;99.90
18091;DHT22;9172;49.948;9.208;2024-01-30T11:11:47;9.00;99.90
18091;DHT22;9172;49.948;9.208;2024-01-30T11:14:16;9.00;99.90
18091;DHT22;9172;49.948;9.208;2024-01-30T11:16:44;9.00;99.90
18091;DHT22;9172;49.948;9.208;2024-01-30T11:19:14;9.10;99.90
18091;DHT22;9172;49.948;9.208;2024-01-30T11:21:43;9.10;99.90
18091;DHT22;9172;49.948;9.208;2024-01-30T11:24:14;9.10;99.90
18091;DHT22;9172;49.948;9.208;2024-01-30T11:26:43;9.10;99.90
18091;DHT22;9172;49.948;9.208;2024-01-30T11:29:14;9.20;99.90
18091;DHT22;9172;49.948;9.208;2024-01-30T11:31:53;9.20;99.90
18091;DHT22;9172;49.948;9.208;2024-01-30T11:34:21;9.30;99.90
18091;DHT22;9172;49.948;9.208;2024-01-30T11:36:55;9.30;99.90
18091;DHT22;9172;49.948;9.208;2024-01-30T11:39:26;9.40;99.90
18091;DHT22;9172;49.948;9.208;2024-01-30T11:41:55;9.40;99.90
18091;DHT22;9172;49.948;9.208;2024-01-30T11:44:24;9.50;99.90
18091;DHT22;9172;49.948;9.208;2024-01-30T11:46:54;9.50;99.90
18091;DHT22;9172;49.948;9.208;2024-01-30T11:49:24;9.50;99.90
18091;DHT22;9172;49.948;9.208;2024-01-30T11:51:53;9.60;99.90
18091;DHT22;9172;49.948;9.208;2024-01-30T11:54:22;9.60;99.90
18091;DHT22;9172;49.948;9.208;2024-01-30T11:56:50;9.60;99.90
18091;DHT22;9172;49.948;9.208;2024-01-30T11:59:19;9.60;99.90
18091;DHT22;9172;49.948;9.208;2024-01-30T12:01:48;9.70;99.90
18091;DHT22;9172;49.948;9.208;2024-01-30T12:04:20;9.80;99.90
18091;DHT22;9172;49.948;9.208;2024-01-30T12:06:52;9.80;99.90
18091;DHT22;9172;49.948;9.208;2024-01-30T12:09:21;9.80;99.90
18091;DHT22;9172;49.948;9.208;2024-01-30T12:11:53;9.80;99.90
18091;DHT22;9172;49.948;9.208;2024-01-30T12:14:23;9.90;99.90
18091;DHT22;9172;49.948;9.208;2024-01-30T12:16:53;9.90;99.90
18091;DHT22;9172;49.948;9.208;2024-01-30T12:19:25;10.00;99.90
18091;DHT22;9172;49.948;9.208;2024-01-30T12:21:57;10.10;99.90
18091;DHT22;9172;49.948;9.208;2024-01-30T12:24:26;10.10;99.90
18091;DHT22;9172;49.948;9.208;2024-01-30T12:26:58;10.20;99.90
18091;DHT22;9172;49.948;9.208;2024-01-30T12:29:26;10.20;99.90
18091;DHT22;9172;49.948;9.208;2024-01-30T12:31:55;10.30;99.90
18091;DHT22;9172;49.948;9.208;2024-01-30T12:34:26;10.30;99.90
18091;DHT22;9172;49.948;9.208;2024-01-30T12:36:54;10.30;99.90
18091;DHT22;9172;49.948;9.208;2024-01-30T12:39:23;10.30;99.90
18091;DHT22;9172;49.948;9.208;2024-01-30T12:41:52;10.30;99.90
18091;DHT22;9172;49.948;9.208;2024-01-30T12:44:21;10.30;99.90
18091;DHT22;9172;49.948;9.208;2024-01-30T12:46:50;10.30;99.90
18091;DHT22;9172;49.948;9.208;2024-01-30T12:49:18;10.40;99.90
18091;DHT22;9172;49.948;9.208;2024-01-30T12:51:47;10.40;99.90
18091;DHT22;9172;49.948;9.208;2024-01-30T12:54:16;10.40;99.90
18091;DHT22;9172;49.948;9.208;2024-01-30T12:56:44;10.40;99.90
18091;DHT22;9172;49.948;9.208;2024-01-30T12:59:13;12.30;99.90
18091;DHT22;9172;49.948;9.208;2024-01-30T13:01:42;10.40;99.90
18091;DHT22;9172;49.948;9.208;2024-01-30T13:04:10;10.50;99.90
18091;DHT22;9172;49.948;9.208;2024-01-30T13:06:39;10.50;99.90
18091;DHT22;9172;49.948;9.208;2024-01-30T13:09:08;10.60;99.90
18091;DHT22;9172;49.948;9.208;2024-01-30T13:11:36;10.60;99.90
18091;DHT22;9172;49.948;9.208;2024-01-30T13:14:05;10.70;99.90
18091;DHT22;9172;49.948;9.208;2024-01-30T13:16:33;10.70;99.90
18091;DHT22;9172;49.948;9.208;2024-01-30T13:19:02;10.70;99.90
18091;DHT22;9172;49.948;9.208;2024-01-30T13:21:31;10.80;99.90
18091;DHT22;9172;49.948;9.208;2024-01-30T13:23:59;10.80;99.90
18091;DHT22;9172;49.948;9.208;2024-01-30T13:26:28;10.80;99.90
18091;DHT22;9172;49.948;9.208;2024-01-30T13:28:58;10.90;99.90
18091;DHT22;9172;49.948;9.208;2024-01-30T13:31:26;10.90;99.90
18091;DHT22;9172;49.948;9.208;2024-01-30T13:33:55;10.90;99.90
18091;DHT22;9172;49.948;9.208;2024-01-30T13:36:24;10.90;99.90
18091;DHT22;9172;49.948;9.208;2024-01-30T13:38:52;10.80;99.90
18091;DHT22;9172;49.948;9.208;2024-01-30T13:41:21;10.80;99.90
18091;DHT22;9172;49.948;9.208;2024-01-30T13:43:53;10.80;99.90
18091;DHT22;9172;49.948;9.208;2024-01-30T13:46:23;10.80;99.90
18091;DHT22;9172;49.948;9.208;2024-01-30T13:48:52;10.80;99.90
18091;DHT22;9172;49.948;9.208;2024-01-30T13:51:20;10.70;99.90
18091;DHT22;9172;49.948;9.208;2024-01-30T13:53:51;10.70;99.90
18091;DHT22;9172;49.948;9.208;2024-01-30T13:56:20;10.70;99.90
18091;DHT22;9172;49.948;9.208;2024-01-30T13:58:50;10.70;99.90
18091;DHT22;9172;49.948;9.208;2024-01-30T14:01:23;10.80;99.90
18091;DHT22;9172;49.948;9.208;2024-01-30T14:03:51;10.80;99.90
18091;DHT22;9172;49.948;9.208;2024-01-30T14:06:20;10.80;99.90
18091;DHT22;9172;49.948;9.208;2024-01-30T14:08:53;10.80;99.90
18091;DHT22;9172;49.948;9.208;2024-01-30T14:11:21;10.80;99.90
18091;DHT22;9172;49.948;9.208;2024-01-30T14:13:52;10.80;99.90
18091;DHT22;9172;49.948;9.208;2024-01-30T14:16:23;10.80;99.90
18091;DHT22;9172;49.948;9.208;2024-01-30T14:18:52;10.80;99.90
18091;DHT22;9172;49.948;9.208;2024-01-30T14:21:21;10.80;99.90
18091;DHT22;9172;49.948;9.208;2024-01-30T14:23:51;10.80;99.90
18091;DHT22;9172;49.948;9.208;2024-01-30T14:26:19;10.80;99.90
18091;DHT22;9172;49.948;9.208;2024-01-30T14:28:48;10.80;99.90
18091;DHT22;9172;49.948;9.208;2024-01-30T14:31:17;10.80;99.90
18091;DHT22;9172;49.948;9.208;2024-01-30T14:33:47;10.80;99.90
18091;DHT22;9172;49.948;9.208;2024-01-30T14:36:16;10.70;99.90
18091;DHT22;9172;49.948;9.208;2024-01-30T14:38:44;10.70;99.90
18091;DHT22;9172;49.948;9.208;2024-01-30T14:41:13;10.70;99.90
18091;DHT22;9172;49.948;9.208;2024-01-30T14:43:42;10.70;99.90
18091;DHT22;9172;49.948;9.208;2024-01-30T14:46:11;10.70;99.90
18091;DHT22;9172;49.948;9.208;2024-01-30T14:48:39;10.70;99.90
18091;DHT22;9172;49.948;9.208;2024-01-30T14:51:08;10.60;99.90
18091;DHT22;9172;49.948;9.208;2024-01-30T14:53:36;10.60;99.90
18091;DHT22;9172;49.948;9.208;2024-01-30T14:56:06;10.60;99.90
18091;DHT22;9172;49.948;9.208;2024-01-30T14:58:35;10.60;99.90
18091;DHT22;9172;49.948;9.208;2024-01-30T15:01:04;10.60;99.90
18091;DHT22;9172;49.948;9.208;2024-01-30T15:03:33;10.60;99.90
18091;DHT22;9172;49.948;9.208;2024-01-30T15:06:03;10.60;99.90
18091;DHT22;9172;49.948;9.208;2024-01-30T15:08:32;10.60;99.90
18091;DHT22;9172;49.948;9.208;2024-01-30T15:11:01;10.60;99.90
18091;DHT22;9172;49.948;9.208;2024-01-30T15:13:31;10.60;99.90
18091;DHT22;9172;49.948;9.208;2024-01-30T15:16:00;10.60;99.90
18091;DHT22;9172;49.948;9.208;2024-01-30T15:18:30;10.50;99.90
18091;DHT22;9172;49.948;9.208;2024-01-30T15:20:59;10.50;99.90
18091;DHT22;9172;49.948;9.208;2024-01-30T15:23:27;10.50;99.90
18091;DHT22;9172;49.948;9.208;2024-01-30T15:25:56;10.50;99.90
18091;DHT22;9172;49.948;9.208;2024-01-30T15:28:35;10.50;99.90
18091;DHT22;9172;49.948;9.208;2024-01-30T15:31:08;10.50;99.90
18091;DHT22;9172;49.948;9.208;2024-01-30T15:33:37;10.50;99.90
18091;DHT22;9172;49.948;9.208;2024-01-30T15:36:06;10.40;99.90
18091;DHT22;9172;49.948;9.208;2024-01-30T15:38:35;10.50;99.90
18091;DHT22;9172;49.948;9.208;2024-01-30T15:41:03;10.40;99.90
18091;DHT22;9172;49.948;9.208;2024-01-30T15:43:32;10.40;99.90
18091;DHT22;9172;49.948;9.208;2024-01-30T15:46:01;10.30;99.90
18091;DHT22;9172;49.948;9.208;2024-01-30T15:48:29;10.30;99.90
18091;DHT22;9172;49.948;9.208;2024-01-30T15:50:58;10.30;99.90
18091;DHT22;9172;49.948;9.208;2024-01-30T15:53:27;10.30;99.90
18091;DHT22;9172;49.948;9.208;2024-01-30T15:55:55;10.30;99.90
18091;DHT22;9172;49.948;9.208;2024-01-30T15:58:25;10.30;99.90
18091;DHT22;9172;49.948;9.208;2024-01-30T16:00:54;10.20;99.90
18091;DHT22;9172;49.948;9.208;2024-01-30T16:03:23;10.20;99.90
18091;DHT22;9172;49.948;9.208;2024-01-30T16:05:51;10.20;99.90
18091;DHT22;9172;49.948;9.208;2024-01-30T16:08:20;10.20;99.90
18091;DHT22;9172;49.948;9.208;2024-01-30T16:10:49;10.20;99.90
18091;DHT22;9172;49.948;9.208;2024-01-30T16:13:17;10.20;99.90
18091;DHT22;9172;49.948;9.208;2024-01-30T16:15:46;10.20;99.90
18091;DHT22;9172;49.948;9.208;2024-01-30T16:18:14;10.10;99.90
18091;DHT22;9172;49.948;9.208;2024-01-30T16:20:43;10.10;99.90
18091;DHT22;9172;49.948;9.208;2024-01-30T16:23:11;10.10;99.90